Hauptseite
METAR-TAF:

METAR-TAF

Flughäfen :

Funafuti, Tuvalu

Flughafen Funafuti

Breite: 08-31S, Länge: 179-13E, Höhe: 1 m

Beobachtung

Neuester Wetterbericht von vor 28 Minuten, um 02:00 UTC
Wind 3 kt aus Ost/Nordost
Temperatur 31°C
Luftfeuchtigkeit 75%
Luftdruck 1011 hPa
Sichtweite 10 km oder mehr
Leicht bewölkt in der Höhe von 1900 ft, Towering cumulus.

METAR: NGFU 230200Z 07003KT 9999 FEW019TCU 31/26 Q1011

Zeit: 14:28 (02:28 UTC)

Prognose

Neuester Wetterbericht von vor 3 Stunden und 7 Minuten, um 23:21 UTC
Gültige Prognose vom 23 um 00 UTC bis 23 um 24 UTC
Wind 8 kt aus Ost/Nordost
Sichtweite 10 km oder mehr
Leicht bewölkt in der Höhe von 1800 ft

TAF: NGFU 222321Z 2300/2324 06008KT 9999 FEW018

Wetterbeobachtungen und Prognosen von mehr als 4000 Flughäfen (METAR und TAF Bericht).

Die verfügbaren Stationen werden durch gelbe und rote Markierungen auf der Karte dargestellt.

Führen Sie die Maus auf sie, um den Namen der Station zu sehen.

Darauf klicken, um die Beobachtung von Wetterbeobachtungen und Prognosen zu sehen.

Um die Karte zu ändern : klicken Sie auf den grünen Tasten mit einem schwarzen Kreuz Zum Vergrößern, auf den grünen Button mit einem Gedankenstrich zu verkleinern, oder auf die grünen Pfeile für benachbarte Karten.


METAR-TAF: